createdAt,value
2019-05-30T00:03:34.199Z,3.77
2019-05-30T00:08:43.136Z,3.74
2019-05-30T00:13:52.120Z,3.47
2019-05-30T00:19:01.055Z,3.90
2019-05-30T00:24:10.017Z,3.93
2019-05-30T00:29:19.015Z,3.86
2019-05-30T00:34:28.097Z,3.49
2019-05-30T00:39:37.004Z,2.89
2019-05-30T00:44:45.947Z,2.69
2019-05-30T00:49:56.148Z,2.59
2019-05-30T00:55:04.671Z,2.58
2019-05-30T01:00:11.915Z,2.63
2019-05-30T01:05:20.844Z,1.80
2019-05-30T01:10:29.851Z,1.44
2019-05-30T01:15:38.787Z,1.17
2019-05-30T01:20:47.723Z,1.00
2019-05-30T01:25:57.323Z,0.77
2019-05-30T01:31:09.587Z,0.51
2019-05-30T01:36:13.631Z,0.78
2019-05-30T01:41:22.595Z,0.77
2019-05-30T01:46:31.559Z,0.60
2019-05-30T01:51:40.547Z,0.70
2019-05-30T01:56:49.542Z,0.59
2019-05-30T02:01:58.873Z,0.60
2019-05-30T02:07:07.356Z,0.65
2019-05-30T02:12:16.091Z,0.48
2019-05-30T02:17:25.002Z,0.37
2019-05-30T02:22:33.947Z,0.46
2019-05-30T02:27:42.938Z,0.48
2019-05-30T02:32:51.872Z,0.40
2019-05-30T02:38:00.977Z,0.53
2019-05-30T02:43:11.871Z,0.46
2019-05-30T02:48:18.344Z,0.44
2019-05-30T02:53:27.279Z,0.46
2019-05-30T02:58:36.300Z,0.50
2019-05-30T03:03:45.254Z,0.61
2019-05-30T03:08:54.220Z,0.49
2019-05-30T03:14:04.464Z,0.48
2019-05-30T03:19:12.724Z,0.59
2019-05-30T03:24:20.346Z,0.57
2019-05-30T03:29:29.332Z,0.71
2019-05-30T03:34:38.301Z,0.83
2019-05-30T03:39:47.285Z,0.58
2019-05-30T03:44:56.216Z,0.72
2019-05-30T03:50:06.908Z,0.84
2019-05-30T03:55:14.960Z,0.54
2019-05-30T04:00:22.195Z,0.63
2019-05-30T04:05:31.134Z,0.73
2019-05-30T04:10:40.311Z,0.67
2019-05-30T04:15:49.231Z,0.97
2019-05-30T04:20:58.191Z,0.90
2019-05-30T04:26:07.478Z,1.05
2019-05-30T04:31:17.261Z,1.11
2019-05-30T04:36:24.163Z,1.11
2019-05-30T04:41:33.119Z,1.27
2019-05-30T04:46:42.047Z,1.02
2019-05-30T04:51:50.998Z,1.18
2019-05-30T04:56:59.932Z,1.33
2019-05-30T05:02:08.930Z,1.72
2019-05-30T05:07:17.957Z,1.57
2019-05-30T05:12:26.819Z,1.49
2019-05-30T05:17:35.753Z,1.45
2019-05-30T05:22:44.919Z,1.38
2019-05-30T05:27:53.847Z,1.78
2019-05-30T05:33:02.830Z,1.79
2019-05-30T05:38:11.779Z,2.10
2019-05-30T05:43:20.707Z,2.34
2019-05-30T05:48:29.632Z,1.63
2019-05-30T05:53:38.686Z,1.54
2019-05-30T05:58:47.634Z,1.67
2019-05-30T06:04:09.899Z,1.46
2019-05-30T06:09:05.057Z,1.61
2019-05-30T06:14:13.979Z,2.11
2019-05-30T06:19:23.215Z,2.28
2019-05-30T06:24:31.387Z,1.87
2019-05-30T06:29:40.330Z,2.10
2019-05-30T06:34:49.327Z,2.20
2019-05-30T06:39:58.264Z,2.00
2019-05-30T06:45:07.254Z,1.73
2019-05-30T06:50:16.183Z,1.79
2019-05-30T06:55:25.230Z,2.54
2019-05-30T07:00:34.095Z,2.21
2019-05-30T07:05:43.430Z,1.92
2019-05-30T07:10:51.548Z,1.92
2019-05-30T07:16:00.509Z,2.16
2019-05-30T07:21:09.430Z,2.42
2019-05-30T07:26:18.442Z,2.31
2019-05-30T07:31:28.086Z,2.39
2019-05-30T07:36:35.909Z,2.17
2019-05-30T07:41:44.837Z,2.22
2019-05-30T07:46:53.863Z,2.31
2019-05-30T07:52:02.816Z,3.14
2019-05-30T07:57:11.771Z,3.45
2019-05-30T08:02:20.683Z,2.66
2019-05-30T08:07:30.662Z,2.39
2019-05-30T08:12:38.464Z,2.51
2019-05-30T08:17:46.627Z,2.71
2019-05-30T08:22:55.602Z,2.46
2019-05-30T08:28:04.707Z,2.39
2019-05-30T08:33:13.639Z,3.67
2019-05-30T08:38:23.212Z,3.43
2019-05-30T08:43:33.306Z,3.74
2019-05-30T08:48:40.730Z,2.83
2019-05-30T08:53:49.655Z,3.05
2019-05-30T08:58:58.631Z,3.14
2019-05-30T09:04:07.560Z,3.05
2019-05-30T09:09:16.515Z,3.05
2019-05-30T09:14:25.475Z,3.17
2019-05-30T09:19:34.537Z,3.23
2019-05-30T09:24:44.016Z,3.26
2019-05-30T09:29:52.075Z,3.46
2019-05-30T09:35:01.026Z,3.13
2019-05-30T09:40:09.978Z,3.32
2019-05-30T09:45:18.916Z,3.35
2019-05-30T09:50:27.896Z,3.44
2019-05-30T09:55:36.823Z,3.43
2019-05-30T10:00:47.250Z,3.67
2019-05-30T10:05:54.305Z,3.12
2019-05-30T10:11:03.278Z,3.41
2019-05-30T10:16:12.203Z,3.25
2019-05-30T10:21:21.199Z,3.29
2019-05-30T10:26:30.183Z,2.99
2019-05-30T10:31:39.233Z,3.27
2019-05-30T10:36:48.886Z,3.81
2019-05-30T10:41:57.221Z,4.08
2019-05-30T10:47:05.274Z,3.85
2019-05-30T10:52:14.293Z,4.14
2019-05-30T10:57:23.387Z,4.10
2019-05-30T11:02:32.420Z,4.81
2019-05-30T11:07:53.032Z,4.16
2019-05-30T11:12:56.193Z,3.75
2019-05-30T11:17:58.350Z,4.06
2019-05-30T11:23:07.379Z,4.37
2019-05-30T11:28:16.364Z,3.74
2019-05-30T11:33:25.338Z,3.95
2019-05-30T11:38:34.324Z,3.91
2019-05-30T11:43:43.278Z,4.23
2019-05-30T11:48:52.235Z,5.09
2019-05-30T11:54:01.261Z,5.40
2019-05-30T11:59:10.415Z,4.37
2019-05-30T12:04:19.447Z,5.16
2019-05-30T12:09:28.416Z,4.30
2019-05-30T12:14:37.388Z,5.07
2019-05-30T12:19:46.351Z,4.12
2019-05-30T12:24:55.872Z,4.03
2019-05-30T12:30:03.763Z,3.61
2019-05-30T12:35:12.697Z,3.79
2019-05-30T12:40:21.695Z,3.70
2019-05-30T12:45:30.610Z,3.42
2019-05-30T12:50:39.570Z,3.88
2019-05-30T12:55:48.503Z,3.43
2019-05-30T13:00:58.664Z,3.11
2019-05-30T13:06:07.439Z,2.81
2019-05-30T13:11:14.382Z,2.73
2019-05-30T13:16:23.306Z,2.80
2019-05-30T13:21:32.247Z,2.83
2019-05-30T13:26:41.234Z,2.90
2019-05-30T13:31:50.171Z,2.47
2019-05-30T13:36:59.134Z,3.25
2019-05-30T13:42:08.091Z,2.64
2019-05-30T13:47:17.035Z,2.59
2019-05-30T13:52:25.951Z,2.69
2019-05-30T13:57:34.947Z,2.78
2019-05-30T14:02:43.873Z,2.91
2019-05-30T14:07:52.847Z,2.27
2019-05-30T14:13:02.521Z,1.84
2019-05-30T14:18:11.191Z,1.84
2019-05-30T14:23:18.716Z,1.88
2019-05-30T14:28:27.685Z,1.85
2019-05-30T14:33:36.608Z,2.37
2019-05-30T14:38:57.733Z,2.15
2019-05-30T14:43:54.050Z,1.73
2019-05-30T14:49:03.028Z,2.03
2019-05-30T14:54:13.168Z,1.59
2019-05-30T14:59:20.523Z,1.46
2019-05-30T15:04:29.444Z,1.29
2019-05-30T15:09:38.455Z,1.00
2019-05-30T15:14:47.367Z,0.81
2019-05-30T15:19:56.408Z,0.54
2019-05-30T15:25:05.756Z,0.55
2019-05-30T15:30:14.742Z,0.42
2019-05-30T15:35:22.380Z,0.34
2019-05-30T15:40:31.303Z,0.37
2019-05-30T15:45:40.264Z,0.38
2019-05-30T15:50:49.198Z,0.28
2019-05-30T15:55:58.279Z,0.31
2019-05-30T16:01:07.223Z,0.29
2019-05-30T16:06:16.536Z,0.58
2019-05-30T16:11:25.195Z,0.20
2019-05-30T16:16:39.373Z,0.30
2019-05-30T16:21:42.780Z,0.49
2019-05-30T16:26:51.894Z,0.38
2019-05-30T16:32:00.849Z,0.57
2019-05-30T16:37:09.845Z,0.81
2019-05-30T16:42:18.767Z,0.64
2019-05-30T16:47:27.750Z,0.62
2019-05-30T16:52:36.673Z,0.89
2019-05-30T16:57:45.699Z,0.92
2019-05-30T17:02:54.627Z,0.89
2019-05-30T17:08:03.739Z,0.95
2019-05-30T17:13:12.667Z,0.85
2019-05-30T17:18:22.349Z,0.80
2019-05-30T17:23:30.160Z,0.85
2019-05-30T17:28:39.158Z,0.84
2019-05-30T17:33:48.087Z,0.83
2019-05-30T17:38:57.166Z,0.97
2019-05-30T17:44:06.111Z,0.86
2019-05-30T17:49:15.139Z,0.83
2019-05-30T17:54:24.055Z,0.71
2019-05-30T17:59:33.039Z,0.80
2019-05-30T18:04:42.003Z,0.81
2019-05-30T18:09:51.055Z,0.90
2019-05-30T18:14:59.992Z,0.59
2019-05-30T18:20:08.999Z,0.78
2019-05-30T18:25:17.967Z,0.78
2019-05-30T18:30:27.998Z,0.74
2019-05-30T18:35:35.612Z,0.68
2019-05-30T18:40:44.618Z,0.76
2019-05-30T18:45:53.526Z,0.73
2019-05-30T18:51:02.591Z,0.71
2019-05-30T18:56:11.530Z,0.68
2019-05-30T19:01:20.531Z,0.63
2019-05-30T19:06:29.999Z,1.04
2019-05-30T19:11:38.266Z,0.88
2019-05-30T19:16:46.427Z,0.82
2019-05-30T19:21:55.380Z,0.80
2019-05-30T19:27:04.331Z,0.83
2019-05-30T19:32:13.344Z,0.87
2019-05-30T19:37:22.360Z,0.73
2019-05-30T19:42:31.449Z,0.86
2019-05-30T19:47:40.350Z,0.97
2019-05-30T19:52:49.343Z,0.75
2019-05-30T19:57:58.291Z,0.84
2019-05-30T20:03:07.311Z,0.94
2019-05-30T20:08:16.295Z,0.87
2019-05-30T20:13:25.262Z,0.73
2019-05-30T20:18:34.187Z,0.91
2019-05-30T20:23:53.762Z,0.97
2019-05-30T20:28:51.603Z,0.83
2019-05-30T20:34:00.566Z,0.87
2019-05-30T20:39:09.496Z,0.86
2019-05-30T20:44:18.468Z,1.08
2019-05-30T20:49:27.399Z,1.22
2019-05-30T20:54:37.324Z,0.98
2019-05-30T20:59:44.811Z,1.01
2019-05-30T21:04:53.832Z,0.90
2019-05-30T21:10:02.755Z,1.00
2019-05-30T21:15:11.693Z,0.88
2019-05-30T21:20:20.631Z,0.75
2019-05-30T21:25:29.642Z,0.71
2019-05-30T21:30:38.856Z,0.50
2019-05-30T21:35:48.108Z,0.44
2019-05-30T21:40:56.100Z,0.38
2019-05-30T21:46:05.146Z,0.49
2019-05-30T21:51:14.079Z,0.47
2019-05-30T21:56:23.051Z,0.48
2019-05-30T22:01:31.978Z,0.45
2019-05-30T22:06:40.991Z,0.45
2019-05-30T22:11:49.927Z,0.44
2019-05-30T22:16:58.930Z,0.56
2019-05-30T22:22:07.919Z,0.67
2019-05-30T22:27:16.942Z,0.64
2019-05-30T22:32:25.851Z,0.53
2019-05-30T22:37:34.846Z,0.73
2019-05-30T22:42:44.157Z,0.53
2019-05-30T22:47:52.815Z,0.56
2019-05-30T22:53:01.735Z,0.94
2019-05-30T22:58:10.679Z,0.60
2019-05-30T23:03:19.628Z,0.50
2019-05-30T23:08:28.653Z,0.58
2019-05-30T23:13:40.589Z,0.44
2019-05-30T23:18:46.439Z,0.64
2019-05-30T23:23:55.323Z,0.63
2019-05-30T23:29:03.966Z,0.59
2019-05-30T23:34:12.910Z,0.58
2019-05-30T23:39:21.895Z,0.47
2019-05-30T23:44:30.812Z,0.70
2019-05-30T23:49:39.795Z,0.55
2019-05-30T23:54:49.953Z,0.48
2019-05-30T23:59:57.319Z,0.60
